Old Fields, West Virginia
Current Conditions -  °F | °C
As of 5:15 AM on Sunday 25 Jan 2015 (Local Time) from KW99 Reporting Station
Overcast Overcast  
Wind Chill: 36°   Ceiling: 3800
Heat Index: 40°   Visibility: 10mi
Dew Point: 26°   Wind: 5mph
Humidity: 59%   Direction: 270°W
Pressure: 29.77"   Gusts: NA
Location:  39.14°N, 78.95°W
Report Text: KW99 251015Z AUTO 27004KT 10SM OVC038 04/M03 A2977 RMK AO2 T00431031 PNO
Loading
Personal Weather Stations






























Interactive Weather Map New forecast layout! Learn more

10-Day Weather Forecast

Advertisements
Track Severe Weather on mobile